Time;durP1;ratioP1;P1;durP2;ratioP2;P2;SDS_P1;SDS_P2;PMS_P1;PMS_P2;Temp;Humidity;BMP_temperature;BMP_pressure;BME280_temperature;BME280_humidity;BME280_pressure;Samples;Min_cycle;Max_cycle;Signal;HPM_P1;HPM_P2
2022/10/21 00:00:30;;;;;;;;;3.00;3.00;;;;;18.12;70.78;100194.84;5114421;27;45863;-64
2022/10/21 00:02:55;;;;;;;;;3.00;2.33;;;;;18.06;71.02;100190.38;5105534;27;65485;-65
2022/10/21 00:05:21;;;;;;;;;1.00;1.00;;;;;18.09;70.98;100192.16;5123683;27;55865;-64
2022/10/21 00:07:46;;;;;;;;;2.00;2.00;;;;;17.98;70.96;100179.69;5120975;27;45526;-65
2022/10/21 00:10:12;;;;;;;;;3.00;2.00;;;;;18.09;70.91;100201.16;5123535;27;45012;-65
2022/10/21 00:12:37;;;;;;;;;2.00;1.00;;;;;18.03;70.89;100187.72;5127167;27;45412;-65
2022/10/21 00:15:07;;;;;;;;;2.00;1.00;;;;;18.05;70.71;100191.31;5128413;27;44909;-65
2022/10/21 00:17:35;;;;;;;;;1.67;1.67;;;;;18.06;70.95;100184.97;5106591;27;45075;-64
2022/10/21 00:20:00;;;;;;;;;1.00;1.00;;;;;18.07;70.73;100173.25;5123171;27;45167;-65
2022/10/21 00:22:25;;;;;;;;;2.33;1.00;;;;;18.02;70.73;100173.31;5125626;27;45559;-65
2022/10/21 00:24:51;;;;;;;;;2.00;2.00;;;;;17.98;70.81;100160.78;5128742;27;61681;-66
2022/10/21 00:27:16;;;;;;;;;2.00;2.00;;;;;18.05;70.85;100172.41;5116567;27;52858;-65
2022/10/21 00:29:41;;;;;;;;;3.33;2.00;;;;;18.08;70.71;100175.03;5131535;27;45032;-65
2022/10/21 00:32:07;;;;;;;;;1.33;1.33;;;;;18.03;70.88;100168.81;5118448;27;59989;-64
2022/10/21 00:34:32;;;;;;;;;2.00;1.67;;;;;18.01;71.01;100168.81;5133087;27;45282;-64
2022/10/21 00:36:58;;;;;;;;;4.33;3.67;;;;;17.96;71.06;100159.88;5118862;27;45146;-65
2022/10/21 00:39:23;;;;;;;;;1.67;1.67;;;;;17.99;71.06;100165.25;5134548;27;45264;-65
2022/10/21 00:41:48;;;;;;;;;2.33;2.33;;;;;17.85;71.12;100138.38;5127668;27;45508;-65
2022/10/21 00:44:14;;;;;;;;;3.00;1.00;;;;;17.94;71.20;100164.41;5111357;27;44890;-64
2022/10/21 00:46:48;;;;;;;;;3.00;2.00;;;;;17.93;71.61;100162.63;5132568;27;45058;-65
2022/10/21 00:49:24;;;;;;;;;1.33;1.00;;;;;17.97;71.48;100160.78;5125721;27;44894;-65
2022/10/21 00:51:55;;;;;;;;;3.00;2.00;;;;;17.89;71.48;100136.56;5109265;27;45359;-66
2022/10/21 00:54:22;;;;;;;;;3.00;1.33;;;;;18.02;71.13;100143.59;5124011;27;45316;-65
2022/10/21 00:56:49;;;;;;;;;1.67;1.67;;;;;17.98;71.29;100157.16;5123556;27;45124;-65
2022/10/21 00:59:16;;;;;;;;;1.00;1.00;;;;;17.88;71.59;100137.47;5120910;27;44986;-65
2022/10/21 01:01:41;;;;;;;;;2.00;2.00;;;;;17.81;71.75;100135.75;5123627;27;45975;-65
2022/10/21 01:04:06;;;;;;;;;1.33;1.33;;;;;17.82;71.71;100127.63;5130156;27;52507;-64
2022/10/21 01:06:34;;;;;;;;;1.33;1.00;;;;;17.53;71.58;100073.06;5127908;27;45118;-66
2022/10/21 01:09:00;;;;;;;;;6.00;3.00;;;;;17.86;71.56;100115.84;5132194;27;45208;-64
2022/10/21 01:11:28;;;;;;;;;1.67;1.33;;;;;17.90;71.60;100110.41;5118080;27;45182;-64
2022/10/21 01:14:06;;;;;;;;;1.00;1.00;;;;;17.93;71.57;100107.69;5113862;27;45010;-65
2022/10/21 01:16:55;;;;;;;;;3.67;2.00;;;;;17.95;71.50;100103.16;5132265;27;45055;-65
2022/10/21 01:19:38;;;;;;;;;2.00;1.00;;;;;18.00;71.26;100091.38;5125659;27;45106;-64
2022/10/21 01:22:06;;;;;;;;;2.00;2.00;;;;;18.04;71.46;100089.50;5123738;27;45549;-66
2022/10/21 01:25:05;;;;;;;;;4.00;2.67;;;;;18.02;71.26;100084.13;5122321;27;45141;-65
2022/10/21 01:27:57;;;;;;;;;4.33;2.00;;;;;17.99;71.34;100073.34;5098026;27;45157;-65
2022/10/21 01:30:29;;;;;;;;;2.33;1.00;;;;;18.05;71.26;100081.38;5114552;27;44989;-65
2022/10/21 01:32:57;;;;;;;;;5.33;2.33;;;;;18.09;71.41;100084.91;5131037;27;45987;-64
2022/10/21 01:35:32;;;;;;;;;2.33;2.33;;;;;18.16;71.25;100085.72;5121541;27;45208;-64
2022/10/21 01:38:12;;;;;;;;;1.00;1.00;;;;;18.20;70.80;100103.69;5119139;27;45134;-64
2022/10/21 01:40:56;;;;;;;;;2.67;2.00;;;;;18.18;71.42;100094.69;5121671;27;45091;-65
2022/10/21 01:43:51;;;;;;;;;3.33;2.00;;;;;18.16;71.39;100108.22;5115683;27;45711;-65
2022/10/21 01:46:30;;;;;;;;;3.00;3.00;;;;;18.13;71.46;100101.97;5119041;27;45310;-65
2022/10/21 01:49:03;;;;;;;;;3.33;3.33;;;;;18.14;71.08;100090.25;5127227;27;45117;-64
2022/10/21 01:51:29;;;;;;;;;2.00;2.00;;;;;18.18;71.23;100102.81;5120802;27;45072;-66
2022/10/21 01:54:03;;;;;;;;;4.00;2.00;;;;;18.23;71.39;100103.63;5110690;27;45234;-64
2022/10/21 01:56:30;;;;;;;;;2.33;1.00;;;;;18.26;70.91;100118.91;5112531;27;45090;-65
2022/10/21 01:58:57;;;;;;;;;3.00;1.67;;;;;18.24;70.91;100117.13;5112088;27;45165;-65
2022/10/21 02:01:23;;;;;;;;;4.00;2.67;;;;;18.27;71.08;100140.53;5121813;27;45115;-65
2022/10/21 02:03:54;;;;;;;;;2.67;2.00;;;;;18.11;71.65;100147.97;5114010;27;44988;-65
2022/10/21 02:06:19;;;;;;;;;2.00;2.00;;;;;18.14;72.35;100193.88;5122572;27;45063;-65
2022/10/21 02:08:45;;;;;;;;;2.00;2.00;;;;;18.07;73.32;100199.41;5124613;27;45117;-65
2022/10/21 02:11:11;;;;;;;;;1.33;1.00;;;;;18.04;73.39;100213.84;5117248;27;44937;-65
2022/10/21 02:13:44;;;;;;;;;1.00;1.00;;;;;18.00;74.57;100220.19;5116337;27;46162;-65
2022/10/21 02:16:14;;;;;;;;;3.33;1.67;;;;;17.95;75.04;100232.88;5126660;27;45192;-65
2022/10/21 02:18:40;;;;;;;;;3.67;3.33;;;;;17.91;75.64;100231.13;5099234;27;45053;-64
2022/10/21 02:21:09;;;;;;;;;2.00;2.00;;;;;17.84;75.81;100203.25;5124138;27;45176;-65
2022/10/21 02:23:54;;;;;;;;;2.00;2.00;;;;;17.85;76.07;100200.53;5099054;27;46544;-66
2022/10/21 02:26:24;;;;;;;;;1.00;1.00;;;;;17.85;76.42;100178.00;5120003;27;45263;-64
2022/10/21 02:28:52;;;;;;;;;3.00;1.33;;;;;17.86;76.84;100164.47;5117767;27;45755;-64
2022/10/21 02:31:38;;;;;;;;;3.00;1.00;;;;;17.89;76.76;100151.91;5124355;27;45199;-64
2022/10/21 02:34:29;;;;;;;;;4.67;1.33;;;;;17.89;77.38;100125.75;5125046;27;46022;-66
2022/10/21 02:37:00;;;;;;;;;2.33;2.33;;;;;17.97;77.16;100128.38;5121132;27;44962;-65
2022/10/21 02:39:33;;;;;;;;;2.00;2.00;;;;;18.00;77.80;100104.88;5123094;27;45086;-65
2022/10/21 02:42:02;;;;;;;;;2.00;1.33;;;;;18.06;77.76;100052.53;5124057;27;44970;-65
2022/10/21 02:44:28;;;;;;;;;2.33;2.33;;;;;17.78;77.17;99989.88;5117846;27;45852;-65
2022/10/21 02:46:53;;;;;;;;;3.33;3.33;;;;;18.17;76.79;100019.94;5127349;27;44985;-65
2022/10/21 02:49:18;;;;;;;;;3.00;1.33;;;;;18.12;76.60;100011.88;5131260;27;45990;-65
2022/10/21 02:51:44;;;;;;;;;4.00;3.00;;;;;18.13;76.54;100010.97;5128568;27;44875;-65
2022/10/21 02:54:09;;;;;;;;;1.33;1.33;;;;;18.29;76.21;100038.63;5120667;27;45631;-65
2022/10/21 02:56:35;;;;;;;;;2.00;2.00;;;;;18.21;76.27;100027.06;5117528;27;45308;-64
2022/10/21 02:59:00;;;;;;;;;1.67;1.00;;;;;18.32;76.15;100033.19;5122779;27;45507;-65
2022/10/21 03:01:26;;;;;;;;;2.33;2.33;;;;;18.39;75.99;100032.16;5114677;27;45207;-64
2022/10/21 03:03:51;;;;;;;;;4.67;3.00;;;;;18.40;75.51;100035.75;5129733;27;46204;-64
2022/10/21 03:06:17;;;;;;;;;3.00;3.00;;;;;18.45;75.57;100036.56;5129153;27;54324;-64
2022/10/21 03:08:43;;;;;;;;;1.67;1.67;;;;;18.40;75.33;100020.41;5126430;27;45253;-64
2022/10/21 03:11:08;;;;;;;;;1.00;1.00;;;;;18.48;75.41;100038.31;5111789;27;45374;-65
2022/10/21 03:13:33;;;;;;;;;2.00;2.00;;;;;18.47;75.23;100034.72;5131416;27;46119;-64
2022/10/21 03:15:59;;;;;;;;;4.00;2.67;;;;;18.42;75.40;100053.72;5132831;27;66923;-65
2022/10/21 03:18:24;;;;;;;;;2.67;2.00;;;;;18.39;75.59;100080.81;5115776;27;57593;-64
2022/10/21 03:20:51;;;;;;;;;2.00;2.00;;;;;18.35;76.11;100087.22;5124642;27;46060;-65
2022/10/21 03:23:17;;;;;;;;;2.33;1.33;;;;;18.35;76.27;100102.56;5115402;27;45074;-64
2022/10/21 03:25:42;;;;;;;;;1.67;1.67;;;;;18.37;76.28;100111.53;5126412;27;45188;-64
2022/10/21 03:28:08;;;;;;;;;1.33;1.33;;;;;18.33;76.54;100113.41;5124896;27;45393;-64
2022/10/21 03:30:33;;;;;;;;;5.00;2.00;;;;;18.22;76.45;100105.44;5127069;27;45282;-64
2022/10/21 03:32:59;;;;;;;;;3.33;1.00;;;;;18.26;77.20;100113.50;5132851;27;45634;-65
2022/10/21 03:35:24;;;;;;;;;2.00;2.00;;;;;18.27;76.95;100099.97;5128265;27;51900;-65
2022/10/21 03:37:50;;;;;;;;;1.00;1.00;;;;;18.27;76.92;100099.97;5134427;27;45016;-65
2022/10/21 03:40:15;;;;;;;;;2.00;1.00;;;;;18.20;76.68;100082.06;5122518;27;50030;-65
2022/10/21 03:42:40;;;;;;;;;0.00;0.00;;;;;18.18;76.57;100084.78;5115552;27;45472;-66
2022/10/21 03:45:06;;;;;;;;;1.00;1.00;;;;;18.17;76.79;100098.34;5118198;27;45142;-65
2022/10/21 03:47:31;;;;;;;;;3.67;2.00;;;;;18.16;76.62;100102.81;5120103;27;45157;-65
2022/10/21 03:49:57;;;;;;;;;0.67;0.67;;;;;18.11;76.28;100091.19;5124976;27;45079;-65
2022/10/21 03:52:22;;;;;;;;;2.00;1.33;;;;;17.78;76.56;100028.56;5131608;27;46094;-65
2022/10/21 03:54:47;;;;;;;;;2.00;1.00;;;;;18.06;76.47;100098.47;5113509;27;45119;-65
2022/10/21 03:57:13;;;;;;;;;3.00;3.00;;;;;18.03;76.78;100120.16;5124388;27;50035;-64
2022/10/21 03:59:38;;;;;;;;;4.67;2.33;;;;;17.80;76.54;100067.31;5105108;27;44977;-65
2022/10/21 04:02:03;;;;;;;;;1.67;1.67;;;;;18.07;77.15;100110.22;5124097;27;65609;-65
2022/10/21 04:04:29;;;;;;;;;1.00;1.00;;;;;18.04;76.84;100109.31;5121692;27;45286;-65
2022/10/21 04:06:54;;;;;;;;;2.33;1.33;;;;;18.03;76.81;100106.63;5124275;27;45061;-65
2022/10/21 04:09:19;;;;;;;;;2.67;1.33;;;;;18.07;76.62;100124.59;5124728;27;45162;-65
2022/10/21 04:11:44;;;;;;;;;1.33;1.33;;;;;18.03;76.41;100121.06;5124979;27;46057;-65
2022/10/21 04:14:10;;;;;;;;;3.00;3.00;;;;;18.01;76.43;100109.34;5119363;27;46955;-65
2022/10/21 04:16:35;;;;;;;;;5.00;1.00;;;;;17.99;77.06;100118.41;5129515;27;45278;-66
2022/10/21 04:19:01;;;;;;;;;4.00;2.67;;;;;17.92;77.58;100119.41;5120793;27;45202;-65
2022/10/21 04:21:26;;;;;;;;;2.00;2.00;;;;;17.81;77.41;100106.91;5112134;27;46136;-65
2022/10/21 04:23:52;;;;;;;;;3.67;2.33;;;;;17.83;77.33;100105.06;5119241;27;45113;-65
2022/10/21 04:26:17;;;;;;;;;1.00;1.00;;;;;17.72;77.54;100081.81;5122786;27;45257;-65
2022/10/21 04:28:42;;;;;;;;;2.33;2.33;;;;;17.83;77.46;100107.75;5121618;27;45356;-65
2022/10/21 04:31:08;;;;;;;;;2.00;2.00;;;;;17.82;77.70;100114.09;5118510;27;45005;-65
2022/10/21 04:33:33;;;;;;;;;3.67;0.67;;;;;17.82;77.61;100114.09;5125413;27;44992;-65
2022/10/21 04:35:59;;;;;;;;;8.00;3.00;;;;;17.88;77.79;100118.56;5131563;27;45035;-65
2022/10/21 04:38:25;;;;;;;;;3.00;3.00;;;;;17.90;77.68;100123.94;5123581;27;45230;-65
2022/10/21 04:40:58;;;;;;;;;4.00;1.00;;;;;17.59;77.68;100062.19;5122407;27;45186;-65
2022/10/21 04:43:25;;;;;;;;;5.00;5.00;;;;;17.95;77.76;100114.88;5101467;27;44983;-65
2022/10/21 04:45:51;;;;;;;;;4.00;4.00;;;;;18.01;77.77;100117.47;5112085;27;45135;-65
2022/10/21 04:48:16;;;;;;;;;2.33;2.33;;;;;18.05;77.60;100118.34;5119551;27;45096;-65
2022/10/21 04:50:43;;;;;;;;;3.00;3.00;;;;;17.96;77.09;100110.34;5120396;27;45180;-64
2022/10/21 04:53:08;;;;;;;;;2.00;2.00;;;;;18.08;77.30;100110.16;5125573;27;45303;-65
2022/10/21 04:55:33;;;;;;;;;4.00;2.67;;;;;18.12;77.48;100113.72;5112650;27;45195;-65
2022/10/21 04:57:59;;;;;;;;;5.00;3.33;;;;;18.13;77.24;100120.91;5099118;27;45171;-65
2022/10/21 05:00:24;;;;;;;;;7.00;3.67;;;;;18.09;77.80;100114.66;5108134;27;62571;-65
2022/10/21 05:02:49;;;;;;;;;8.00;3.33;;;;;17.99;77.73;100097.69;5110305;27;45309;-65
2022/10/21 05:05:15;;;;;;;;;5.67;4.00;;;;;18.10;77.65;100121.88;5094903;27;58449;-66
2022/10/21 05:07:40;;;;;;;;;7.33;4.00;;;;;18.10;77.98;100115.53;5113672;27;45156;-65
2022/10/21 05:10:06;;;;;;;;;8.00;4.67;;;;;18.06;77.76;100109.28;5115808;27;45723;-64
2022/10/21 05:12:31;;;;;;;;;4.00;4.00;;;;;18.07;77.89;100124.59;5115198;27;46909;-65
2022/10/21 05:14:59;;;;;;;;;4.67;4.67;;;;;18.07;78.04;100100.28;5115522;27;45189;-65
2022/10/21 05:17:24;;;;;;;;;3.67;3.67;;;;;18.11;78.13;100115.53;5121549;27;45087;-67
2022/10/21 05:19:50;;;;;;;;;5.00;4.00;;;;;18.09;78.11;100094.84;5103175;27;45714;-65
2022/10/21 05:22:15;;;;;;;;;9.00;4.33;;;;;18.22;77.67;100118.06;5112996;27;50592;-65
2022/10/21 05:24:40;;;;;;;;;6.67;6.67;;;;;18.13;77.65;100119.13;5114273;27;45227;-66
2022/10/21 05:27:05;;;;;;;;;9.67;5.00;;;;;18.18;77.99;100129.84;5115673;27;53352;-65
2022/10/21 05:29:31;;;;;;;;;9.67;6.67;;;;;18.17;78.06;100153.28;5113932;27;66446;-65
2022/10/21 05:31:56;;;;;;;;;4.00;4.00;;;;;18.23;77.86;100149.59;5108185;27;58146;-67
2022/10/21 05:34:21;;;;;;;;;8.00;4.67;;;;;18.25;77.61;100139.66;5113885;27;45154;-66
2022/10/21 05:36:47;;;;;;;;;3.67;3.67;;;;;18.19;77.90;100137.03;5123123;27;45574;-65
2022/10/21 05:39:13;;;;;;;;;11.33;4.00;;;;;18.16;77.87;100129.84;5109894;27;45109;-65
2022/10/21 05:41:38;;;;;;;;;8.67;8.67;;;;;18.12;77.87;100122.72;5114129;27;46391;-65
2022/10/21 05:44:04;;;;;;;;;5.33;5.33;;;;;18.07;78.25;100113.78;5121340;27;45106;-65
2022/10/21 05:46:29;;;;;;;;;4.33;4.33;;;;;18.11;78.25;100120.03;5113212;27;46387;-65
2022/10/21 05:48:54;;;;;;;;;9.33;5.00;;;;;18.11;78.17;100114.63;5117587;27;46872;-65
2022/10/21 05:51:25;;;;;;;;;7.00;5.00;;;;;18.17;78.06;100131.66;5114069;27;66979;-65
2022/10/21 05:53:50;;;;;;;;;9.00;4.67;;;;;18.18;77.87;100132.53;5120150;27;45074;-65
2022/10/21 05:56:16;;;;;;;;;5.00;5.00;;;;;18.20;77.93;100128.03;5120496;27;45103;-65
2022/10/21 05:58:41;;;;;;;;;7.33;5.00;;;;;18.22;77.65;100123.47;5122980;27;47129;-65
2022/10/21 06:01:06;;;;;;;;;8.00;6.00;;;;;18.28;77.54;100149.53;5126980;27;44888;-65
2022/10/21 06:03:33;;;;;;;;;8.67;8.00;;;;;18.25;77.35;100158.59;5113854;27;45197;-65
2022/10/21 06:06:01;;;;;;;;;15.67;12.67;;;;;18.29;77.67;100162.16;5119838;27;45278;-65
2022/10/21 06:08:27;;;;;;;;;8.33;8.33;;;;;18.22;77.27;100162.22;5125860;27;45822;-65
2022/10/21 06:11:06;;;;;;;;;7.00;5.00;;;;;18.31;77.26;100185.53;5119717;27;45350;-65
2022/10/21 06:13:32;;;;;;;;;7.67;6.33;;;;;18.33;77.20;100196.31;5117266;27;45104;-65
2022/10/21 06:15:58;;;;;;;;;7.00;7.00;;;;;18.32;77.17;100202.66;5127577;27;44958;-65
2022/10/21 06:18:24;;;;;;;;;4.33;4.33;;;;;18.26;77.24;100206.34;5130789;27;45097;-65
2022/10/21 06:20:49;;;;;;;;;7.33;7.33;;;;;18.28;77.16;100215.34;5113860;27;45414;-65
2022/10/21 06:23:15;;;;;;;;;10.00;5.00;;;;;18.33;77.04;100209.84;5117487;27;50840;-65
2022/10/21 06:25:41;;;;;;;;;6.33;4.67;;;;;18.36;76.78;100212.50;5122327;27;45202;-64
2022/10/21 06:28:07;;;;;;;;;5.00;3.00;;;;;18.36;76.71;100223.31;5127813;27;45233;-65
2022/10/21 06:30:33;;;;;;;;;5.67;5.00;;;;;18.37;76.55;100225.13;5124639;27;45237;-65
2022/10/21 06:32:58;;;;;;;;;6.33;4.67;;;;;18.35;76.79;100217.03;5130299;27;45061;-65
2022/10/21 06:35:23;;;;;;;;;5.00;5.00;;;;;18.29;77.23;100225.22;5114447;27;46339;-66
2022/10/21 06:37:49;;;;;;;;;6.67;4.00;;;;;18.37;77.14;100254.88;5130190;27;44996;-66
2022/10/21 06:40:14;;;;;;;;;12.50;7.00;;;;;18.26;77.44;100238.78;5118489;27;46606;-65
2022/10/21 06:42:40;;;;;;;;;3.00;3.00;;;;;18.38;76.98;100260.28;5117150;27;44975;-65
2022/10/21 06:45:06;;;;;;;;;5.00;5.00;;;;;18.38;77.70;100253.97;5113436;27;45030;-65
2022/10/21 06:47:31;;;;;;;;;6.67;4.00;;;;;18.37;77.33;100252.16;5114889;27;45070;-65
2022/10/21 06:49:56;;;;;;;;;8.67;6.67;;;;;18.37;77.26;100244.06;5118515;27;45111;-65
2022/10/21 06:52:22;;;;;;;;;6.00;5.67;;;;;18.35;77.53;100246.78;5132308;27;45319;-66
2022/10/21 06:54:47;;;;;;;;;10.33;8.33;;;;;17.37;77.78;100075.94;5130189;27;45127;-65
2022/10/21 06:57:12;;;;;;;;;12.33;8.33;;;;;18.36;77.94;100266.59;5110900;27;46144;-65
2022/10/21 06:59:38;;;;;;;;;10.67;6.00;;;;;18.39;77.62;100253.03;5102150;27;45208;-66
2022/10/21 07:02:03;;;;;;;;;8.33;5.00;;;;;18.39;77.61;100250.34;5125779;27;54483;-67
2022/10/21 07:04:28;;;;;;;;;5.00;5.00;;;;;18.34;77.71;100253.09;5131048;27;44875;-66
2022/10/21 07:06:54;;;;;;;;;8.67;5.00;;;;;18.27;77.73;100240.59;5116948;27;46339;-65
2022/10/21 07:09:19;;;;;;;;;7.67;6.67;;;;;18.33;77.86;100242.28;5131333;27;49435;-66
2022/10/21 07:11:44;;;;;;;;;11.00;10.33;;;;;18.33;77.73;100243.22;5127530;27;45000;-65
2022/10/21 07:14:11;;;;;;;;;5.00;5.00;;;;;18.31;77.77;100236.03;5121572;27;45390;-65
2022/10/21 07:16:37;;;;;;;;;6.00;5.00;;;;;18.30;77.85;100235.13;5113903;27;45661;-65
2022/10/21 07:19:03;;;;;;;;;6.67;6.67;;;;;18.28;77.51;100238.75;5122346;27;45171;-65
2022/10/21 07:21:30;;;;;;;;;9.00;4.33;;;;;18.16;77.64;100247.94;5109434;27;45181;-65
2022/10/21 07:23:56;;;;;;;;;11.00;9.33;;;;;18.28;77.87;100285.66;5107543;27;45255;-66
2022/10/21 07:26:23;;;;;;;;;10.33;7.33;;;;;18.23;77.91;100287.50;5119626;27;45874;-65
2022/10/21 07:28:49;;;;;;;;;3.00;3.00;;;;;18.28;77.66;100303.66;5124366;27;45399;-65
2022/10/21 07:31:16;;;;;;;;;5.00;5.00;;;;;18.29;77.62;100319.00;5119455;27;45401;-65
2022/10/21 07:33:42;;;;;;;;;4.67;3.67;;;;;18.28;77.68;100298.25;5115948;27;45633;-65
2022/10/21 07:36:14;;;;;;;;;4.00;2.33;;;;;18.19;76.73;100256.91;5131155;27;45978;-64
2022/10/21 07:38:42;;;;;;;;;9.00;6.67;;;;;18.17;76.98;100258.72;5133568;27;44930;-65
2022/10/21 07:41:13;;;;;;;;;17.00;16.00;;;;;18.24;77.39;100295.59;5127261;27;45193;-65
2022/10/21 07:43:38;;;;;;;;;5.00;4.00;;;;;18.21;77.24;100313.66;5107266;27;45176;-65
2022/10/21 07:46:04;;;;;;;;;7.67;6.00;;;;;18.19;77.74;100319.09;5105885;27;57408;-65
2022/10/21 07:48:29;;;;;;;;;4.33;4.33;;;;;18.11;77.64;100304.75;5113013;27;45092;-64
2022/10/21 07:51:02;;;;;;;;;8.67;5.33;;;;;18.09;77.13;100294.91;5113415;27;56645;-65
2022/10/21 07:53:28;;;;;;;;;72.00;56.50;;;;;18.05;77.66;100297.63;5121017;27;45230;-64
2022/10/21 07:56:21;;;;;;;;;4.33;4.33;;;;;18.09;77.02;100309.31;5121991;27;47450;-64
2022/10/21 07:58:49;;;;;;;;;4.67;4.00;;;;;18.14;77.01;100303.84;5099086;27;45188;-65
2022/10/21 08:01:15;;;;;;;;;5.00;4.67;;;;;18.15;77.09;100306.53;5109038;27;45210;-65
2022/10/21 08:03:41;;;;;;;;;2.00;2.00;;;;;18.06;76.39;100293.13;5103119;27;45439;-69
2022/10/21 08:06:08;;;;;;;;;30.33;20.67;;;;;18.16;76.80;100318.22;5101577;27;45678;-64
2022/10/21 08:08:35;;;;;;;;;5.00;4.67;;;;;18.10;77.11;100297.59;5099424;27;46639;-66
2022/10/21 08:11:01;;;;;;;;;3.00;3.00;;;;;18.20;77.03;100322.72;5107021;27;45163;-66
2022/10/21 08:13:27;;;;;;;;;5.67;4.00;;;;;18.27;77.64;100320.81;5101052;27;45243;-67
2022/10/21 08:15:53;;;;;;;;;6.67;4.00;;;;;18.32;77.20;100313.53;5100428;27;46081;-66
2022/10/21 08:18:20;;;;;;;;;4.00;2.33;;;;;18.38;76.72;100310.78;5106788;27;45135;-67
2022/10/21 08:20:46;;;;;;;;;3.33;3.33;;;;;18.42;76.86;100321.50;5107873;27;45126;-66
2022/10/21 08:23:14;;;;;;;;;12.67;12.67;;;;;18.35;76.90;100303.56;5097749;27;45179;-66
2022/10/21 08:25:48;;;;;;;;;5.67;3.33;;;;;18.48;76.27;100325.03;5107611;27;45523;-66
2022/10/21 08:28:14;;;;;;;;;7.00;4.33;;;;;18.48;76.53;100325.03;5102917;27;45036;-67
2022/10/21 08:30:41;;;;;;;;;7.67;7.00;;;;;18.59;76.28;100328.50;5104214;27;45182;-67
2022/10/21 08:33:06;;;;;;;;;8.00;6.00;;;;;18.66;76.14;100335.66;5098718;27;45353;-66
2022/10/21 08:35:32;;;;;;;;;10.33;9.00;;;;;18.70;75.73;100333.78;5100161;27;54681;-66
2022/10/21 08:37:58;;;;;;;;;2.33;2.33;;;;;18.70;75.77;100331.09;5105644;27;45559;-66
2022/10/21 08:40:23;;;;;;;;;2.67;2.00;;;;;18.72;75.60;100324.72;5107184;27;46183;-66
2022/10/21 08:42:49;;;;;;;;;2.33;2.33;;;;;18.79;75.43;100325.53;5103064;27;47074;-66
2022/10/21 08:45:28;;;;;;;;;6.33;3.33;;;;;18.78;75.51;100327.34;5099576;27;45522;-66
2022/10/21 08:47:59;;;;;;;;;4.67;2.33;;;;;18.83;75.53;100329.09;5098556;27;45782;-67
2022/10/21 08:50:32;;;;;;;;;5.00;5.00;;;;;18.83;75.61;100327.31;5105241;27;45490;-66
2022/10/21 08:53:00;;;;;;;;;5.67;4.33;;;;;18.89;75.15;100327.25;5100381;27;45186;-66
2022/10/21 08:55:34;;;;;;;;;4.67;3.67;;;;;18.93;75.72;100330.78;5100117;27;45264;-73
2022/10/21 08:58:01;;;;;;;;;3.33;3.33;;;;;18.99;75.07;100335.19;5097290;27;45225;-66
2022/10/21 09:00:32;;;;;;;;;5.00;4.00;;;;;18.84;74.93;100307.47;5104532;27;45574;-66
2022/10/21 09:03:18;;;;;;;;;4.67;4.67;;;;;19.06;74.55;100332.38;5099350;27;48227;-67
2022/10/21 09:05:55;;;;;;;;;5.67;5.67;;;;;19.07;74.28;100333.28;5100052;27;46182;-67
2022/10/21 09:08:29;;;;;;;;;5.33;2.67;;;;;19.17;74.16;100337.63;5103124;27;45608;-67
2022/10/21 09:11:05;;;;;;;;;6.33;4.00;;;;;19.25;74.14;100340.22;5103562;27;45637;-67
2022/10/21 09:13:55;;;;;;;;;4.33;3.00;;;;;19.25;73.89;100332.97;5105377;27;45309;-67
2022/10/21 09:16:30;;;;;;;;;4.00;4.00;;;;;19.30;73.82;100335.63;5101518;27;45485;-66
2022/10/21 09:19:20;;;;;;;;;5.33;5.33;;;;;19.33;73.92;100335.56;5106895;27;45170;-67
2022/10/21 09:22:02;;;;;;;;;6.00;6.00;;;;;19.38;73.50;100338.22;5109868;27;45322;-66
2022/10/21 09:24:34;;;;;;;;;6.00;6.00;;;;;19.44;73.63;100333.59;5104207;27;45281;-66
2022/10/21 09:27:02;;;;;;;;;5.33;5.00;;;;;19.50;73.56;100333.50;5097721;27;45777;-66
2022/10/21 09:29:43;;;;;;;;;7.33;5.00;;;;;19.37;72.77;100302.13;5099711;27;45473;-67
2022/10/21 09:32:18;;;;;;;;;6.67;5.67;;;;;19.49;72.68;100325.38;5101902;27;45121;-67
2022/10/21 09:34:50;;;;;;;;;10.00;8.33;;;;;19.47;73.25;100319.13;5103391;27;46255;-67
2022/10/21 09:37:23;;;;;;;;;9.00;4.33;;;;;19.58;73.15;100327.91;5098268;27;47345;-67
2022/10/21 09:39:59;;;;;;;;;8.33;6.00;;;;;19.56;73.67;100326.19;5105795;27;45398;-67
2022/10/21 09:42:24;;;;;;;;;14.67;11.00;;;;;19.59;73.67;100329.72;5103770;27;45245;-66
2022/10/21 09:44:49;;;;;;;;;8.33;8.33;;;;;19.66;73.70;100325.97;5107246;27;45233;-67
2022/10/21 09:47:22;;;;;;;;;13.33;10.67;;;;;19.66;73.08;100327.78;5113592;27;46097;-67
2022/10/21 09:49:57;;;;;;;;;6.33;6.33;;;;;19.79;73.21;100323.09;5108985;27;45210;-67
2022/10/21 09:52:29;;;;;;;;;4.67;4.67;;;;;19.85;72.92;100318.44;5112771;27;45111;-67
2022/10/21 09:54:55;;;;;;;;;5.33;5.33;;;;;19.92;72.33;100321.94;5111719;27;45273;-67
2022/10/21 09:57:59;;;;;;;;;11.00;8.33;;;;;20.00;73.02;100319.09;5105135;27;45454;-66
2022/10/21 10:00:44;;;;;;;;;6.00;6.00;;;;;20.03;71.36;100327.16;5112907;27;45283;-67
2022/10/21 10:03:10;;;;;;;;;7.00;5.33;;;;;20.11;71.33;100321.56;5109079;27;45143;-67
2022/10/21 10:05:46;;;;;;;;;7.00;4.33;;;;;20.15;70.92;100336.88;5103906;27;45355;-67
2022/10/21 10:08:39;;;;;;;;;10.00;7.67;;;;;20.17;70.97;100346.75;5107611;27;45523;-68
2022/10/21 10:11:07;;;;;;;;;9.33;7.00;;;;;20.22;71.22;100343.94;5120715;27;45272;-67
2022/10/21 10:13:32;;;;;;;;;11.67;11.67;;;;;20.31;70.58;100338.34;5128091;27;45275;-66
2022/10/21 10:16:31;;;;;;;;;14.33;13.00;;;;;20.36;69.99;100341.88;5129144;27;45348;-67
2022/10/21 10:19:14;;;;;;;;;12.33;8.00;;;;;20.38;69.77;100333.69;5118139;27;45998;-67
2022/10/21 10:21:40;;;;;;;;;6.33;6.00;;;;;20.32;69.07;100329.28;5112792;27;45154;-67
2022/10/21 10:24:16;;;;;;;;;8.00;4.00;;;;;20.37;68.71;100340.03;5122420;27;45119;-67
2022/10/21 10:26:41;;;;;;;;;6.00;6.00;;;;;20.33;68.41;100333.78;5108400;27;45115;-67
2022/10/21 10:29:26;;;;;;;;;12.33;10.00;;;;;20.42;68.51;100336.28;5118445;27;45540;-67
2022/10/21 10:31:59;;;;;;;;;7.33;6.67;;;;;20.38;68.87;100329.16;5121363;27;45041;-67
2022/10/21 10:34:33;;;;;;;;;7.67;4.00;;;;;20.47;68.76;100346.16;5115476;27;45393;-67
2022/10/21 10:37:01;;;;;;;;;8.00;7.00;;;;;20.51;68.71;100334.31;5127902;27;45248;-66
2022/10/21 10:39:30;;;;;;;;;10.33;8.67;;;;;20.57;68.75;100342.31;5105091;27;46480;-67
2022/10/21 10:41:56;;;;;;;;;5.33;5.33;;;;;20.58;67.86;100334.16;5128709;27;45069;-68
2022/10/21 10:44:27;;;;;;;;;5.00;5.00;;;;;20.63;68.05;100328.66;5104024;27;45338;-67
2022/10/21 10:46:55;;;;;;;;;3.67;3.67;;;;;20.59;67.09;100311.53;5122835;27;45097;-67
2022/10/21 10:49:24;;;;;;;;;5.33;5.33;;;;;20.75;66.25;100328.38;5114029;27;46314;-67
2022/10/21 10:52:03;;;;;;;;;5.33;4.00;;;;;20.78;65.17;100327.44;5124656;27;45424;-67
2022/10/21 10:54:29;;;;;;;;;6.67;5.67;;;;;20.83;64.89;100324.63;5119950;27;45302;-67
2022/10/21 10:57:23;;;;;;;;;8.33;5.67;;;;;20.88;65.39;100325.41;5123083;27;45205;-67
2022/10/21 11:00:15;;;;;;;;;6.67;6.67;;;;;20.97;65.60;100326.09;5109124;27;45269;-67
2022/10/21 11:02:50;;;;;;;;;18.00;18.00;;;;;21.07;65.15;100331.28;5100967;27;46104;-67
2022/10/21 11:05:22;;;;;;;;;10.00;7.00;;;;;21.14;65.00;100327.50;5109438;27;45595;-67
2022/10/21 11:07:56;;;;;;;;;9.33;7.33;;;;;21.21;63.91;100329.13;5119737;27;45004;-67
2022/10/21 11:10:44;;;;;;;;;9.67;9.67;;;;;21.24;63.98;100318.19;5105260;27;45459;-68
2022/10/21 11:13:18;;;;;;;;;20.67;14.00;;;;;21.23;63.22;100318.22;5122577;27;45246;-67
2022/10/21 11:16:14;;;;;;;;;6.00;5.00;;;;;21.13;62.80;100299.44;5124680;27;45296;-67
2022/10/21 11:18:49;;;;;;;;;9.67;7.67;;;;;21.28;62.62;100316.28;5127208;27;45297;-67
2022/10/21 11:21:36;;;;;;;;;18.33;13.00;;;;;21.29;62.21;100326.25;5103736;27;46352;-67
2022/10/21 11:24:04;;;;;;;;;7.67;7.67;;;;;21.34;61.37;100306.16;5107790;27;45320;-67
2022/10/21 11:26:38;;;;;;;;;13.33;11.33;;;;;21.42;61.80;100308.69;5128811;27;45058;-67
2022/10/21 11:29:12;;;;;;;;;7.33;7.33;;;;;21.52;61.38;100315.72;5103354;27;45448;-67
2022/10/21 11:31:47;;;;;;;;;23.67;20.00;;;;;21.57;60.90;100309.28;5120328;27;45774;-68
2022/10/21 11:34:35;;;;;;;;;15.00;9.00;;;;;21.60;59.42;100322.78;5121983;27;45234;-67